Time;durP1;ratioP1;P1;durP2;ratioP2;P2;SDS_P1;SDS_P2;PMS_P1;PMS_P2;Temp;Humidity;BMP_temperature;BMP_pressure;BME280_temperature;BME280_humidity;BME280_pressure;Samples;Min_cycle;Max_cycle;Signal;HPM_P1;HPM_P2
2021/07/14 00:00:46;;;;;;;13.30;8.37;;;19.30;99.90;;;;;;5029053;28;20249;-61
2021/07/14 00:03:11;;;;;;;11.53;8.80;;;19.30;99.90;;;;;;5030511;28;20289;-61
2021/07/14 00:05:38;;;;;;;11.53;9.10;;;19.30;99.90;;;;;;5027715;28;20267;-61
2021/07/14 00:08:06;;;;;;;9.70;8.53;;;19.30;99.90;;;;;;5030251;28;20236;-61
2021/07/14 00:10:32;;;;;;;9.43;8.30;;;19.30;99.90;;;;;;5039130;28;20424;-61
2021/07/14 00:13:08;;;;;;;12.02;8.95;;;19.30;99.90;;;;;;5023335;28;20468;-61
2021/07/14 00:23:30;;;;;;;11.43;9.37;;;19.30;99.90;;;;;;5030777;28;20953;-61
2021/07/14 00:25:56;;;;;;;10.77;8.67;;;19.40;99.90;;;;;;5031009;28;20433;-60
2021/07/14 00:28:22;;;;;;;14.70;10.10;;;19.40;99.90;;;;;;5030370;28;20790;-61
2021/07/14 00:31:00;;;;;;;12.63;10.77;;;19.40;99.90;;;;;;5030106;28;20190;-60
2021/07/14 00:33:27;;;;;;;13.57;10.00;;;19.40;99.90;;;;;;5030600;28;20242;-61
2021/07/14 00:35:53;;;;;;;13.30;8.90;;;19.40;99.90;;;;;;5030791;28;20422;-60
2021/07/14 00:38:20;;;;;;;15.37;8.93;;;19.40;99.90;;;;;;5030565;28;20428;-61
2021/07/14 00:40:46;;;;;;;15.23;9.00;;;19.30;99.90;;;;;;5030653;28;20790;-61
2021/07/14 00:43:11;;;;;;;11.73;9.27;;;19.30;99.90;;;;;;5012791;28;20425;-61
2021/07/14 00:45:38;;;;;;;12.67;9.77;;;19.30;99.90;;;;;;5030537;28;20186;-61
2021/07/14 00:48:04;;;;;;;12.60;10.00;;;19.30;99.90;;;;;;5030298;28;20437;-61
2021/07/14 00:50:30;;;;;;;12.27;9.37;;;19.30;99.90;;;;;;5030129;28;20442;-60
2021/07/14 00:52:55;;;;;;;13.23;10.10;;;19.20;99.90;;;;;;5030400;28;20458;-62
2021/07/14 00:55:21;;;;;;;13.10;9.33;;;19.20;99.90;;;;;;5030242;28;20429;-69
2021/07/14 00:57:46;;;;;;;11.50;9.40;;;19.20;99.90;;;;;;5030239;28;20179;-62
2021/07/14 01:00:13;;;;;;;14.10;10.13;;;19.20;99.90;;;;;;5030162;28;20193;-61
2021/07/14 01:02:39;;;;;;;16.73;11.57;;;19.20;99.90;;;;;;5030010;28;20188;-61
2021/07/14 01:05:14;;;;;;;11.83;10.07;;;19.30;99.90;;;;;;5030340;28;20637;-65
2021/07/14 01:08:00;;;;;;;12.90;9.30;;;19.30;99.90;;;;;;5030112;28;20919;-61
2021/07/14 01:10:31;;;;;;;12.67;9.97;;;19.20;99.90;;;;;;5040487;28;20417;-60
2021/07/14 01:13:10;;;;;;;13.10;9.73;;;19.10;99.90;;;;;;5029918;28;20982;-57
2021/07/14 01:15:46;;;;;;;11.93;9.87;;;19.10;99.90;;;;;;5029778;28;20444;-59
2021/07/14 01:18:32;;;;;;;15.10;9.50;;;19.10;99.90;;;;;;5029179;28;20815;-57
2021/07/14 01:21:04;;;;;;;18.83;11.00;;;19.00;99.90;;;;;;5017502;28;20512;-55
2021/07/14 01:23:44;;;;;;;14.37;12.30;;;19.00;99.90;;;;;;5030036;28;20417;-56
2021/07/14 01:26:19;;;;;;;12.47;10.30;;;19.00;99.90;;;;;;5029678;28;20490;-57
2021/07/14 01:28:48;;;;;;;18.17;11.20;;;18.90;99.90;;;;;;5029635;28;20416;-57
2021/07/14 01:31:18;;;;;;;13.90;11.40;;;18.90;99.90;;;;;;5029570;28;20915;-57
2021/07/14 01:33:45;;;;;;;17.30;11.33;;;18.90;99.90;;;;;;5030101;28;20474;-57
2021/07/14 01:36:15;;;;;;;18.83;11.03;;;18.80;99.90;;;;;;5029554;28;20419;-56
2021/07/14 01:38:44;;;;;;;17.70;10.70;;;18.80;99.90;;;;;;5011842;28;20436;-57
2021/07/14 01:41:12;;;;;;;20.47;10.83;;;18.90;99.90;;;;;;5029544;28;20491;-58
2021/07/14 01:43:59;;;;;;;15.95;11.30;;;18.90;99.90;;;;;;5029672;28;20425;-52
2021/07/14 01:46:28;;;;;;;13.73;10.90;;;19.00;99.90;;;;;;5028996;28;20189;-58
2021/07/14 01:48:55;;;;;;;19.43;11.73;;;19.00;99.90;;;;;;5029265;28;20840;-56
2021/07/14 01:51:22;;;;;;;12.27;10.20;;;19.00;99.90;;;;;;5029417;28;20413;-57
2021/07/14 01:53:48;;;;;;;14.17;10.53;;;19.00;99.90;;;;;;5029189;28;20486;-56
2021/07/14 01:56:15;;;;;;;15.03;10.67;;;19.00;99.90;;;;;;5029542;28;20419;-57
2021/07/14 01:58:43;;;;;;;16.23;11.27;;;19.10;99.90;;;;;;5029345;28;20417;-58
2021/07/14 02:01:12;;;;;;;16.03;11.50;;;19.10;99.90;;;;;;5029254;28;20760;-58
2021/07/14 02:03:56;;;;;;;16.20;11.60;;;19.10;99.90;;;;;;5029053;28;20434;-57
2021/07/14 02:06:23;;;;;;;16.53;11.17;;;19.20;99.90;;;;;;5029220;28;20426;-56
2021/07/14 02:08:49;;;;;;;14.47;11.87;;;19.20;99.90;;;;;;5029766;28;20427;-56
2021/07/14 02:11:20;;;;;;;18.90;11.70;;;19.10;99.90;;;;;;5028714;28;20421;-56
2021/07/14 02:13:47;;;;;;;18.80;12.57;;;19.10;99.90;;;;;;5028874;28;20475;-57
2021/07/14 02:16:14;;;;;;;13.93;11.63;;;19.10;99.90;;;;;;5029173;28;20451;-54
2021/07/14 02:18:44;;;;;;;15.33;11.07;;;19.30;99.90;;;;;;5028814;28;20563;-57
2021/07/14 02:21:09;;;;;;;17.90;12.43;;;19.20;99.90;;;;;;5016028;28;20448;-55
2021/07/14 02:23:36;;;;;;;14.20;11.97;;;19.10;99.90;;;;;;5028797;28;20508;-55
2021/07/14 02:26:04;;;;;;;21.87;12.33;;;19.00;99.90;;;;;;5029239;28;20198;-54
2021/07/14 02:28:30;;;;;;;17.93;12.87;;;19.00;99.90;;;;;;5029357;28;20816;-52
2021/07/14 02:30:56;;;;;;;18.10;13.50;;;19.00;99.90;;;;;;5028821;28;20436;-57
2021/07/14 02:33:21;;;;;;;16.97;12.73;;;18.90;99.90;;;;;;5028887;28;20217;-54
2021/07/14 02:35:49;;;;;;;20.73;14.10;;;18.80;99.90;;;;;;5029083;28;20946;-55
2021/07/14 02:38:23;;;;;;;20.40;12.90;;;18.80;99.90;;;;;;5028978;28;20170;-56
2021/07/14 02:40:58;;;;;;;18.97;13.97;;;18.80;99.90;;;;;;5028891;28;20416;-55
2021/07/14 02:43:28;;;;;;;17.83;13.20;;;18.80;99.90;;;;;;5028975;28;20460;-58
2021/07/14 02:46:01;;;;;;;18.43;13.70;;;18.70;99.90;;;;;;5028811;28;20413;-55
2021/07/14 02:48:28;;;;;;;15.13;12.67;;;18.70;99.90;;;;;;5028851;28;20450;-54
2021/07/14 02:50:58;;;;;;;20.43;14.57;;;18.70;99.90;;;;;;5028459;28;20439;-52
2021/07/14 02:53:28;;;;;;;19.30;14.03;;;18.60;99.90;;;;;;5028629;28;20808;-56
2021/07/14 02:56:01;;;;;;;18.83;13.93;;;18.70;99.90;;;;;;5028892;28;20445;-55
2021/07/14 02:58:30;;;;;;;24.60;15.20;;;18.70;99.90;;;;;;5029108;28;20416;-52
2021/07/14 03:00:57;;;;;;;21.10;14.73;;;18.70;99.90;;;;;;5028653;28;20419;-54
2021/07/14 03:03:24;;;;;;;23.23;14.30;;;18.60;99.90;;;;;;5028423;28;20923;-56
2021/07/14 03:05:56;;;;;;;20.00;13.77;;;18.70;99.90;;;;;;5028593;28;20522;-56
2021/07/14 03:08:30;;;;;;;19.83;14.37;;;18.60;99.90;;;;;;5028250;28;21079;-56
2021/07/14 03:10:57;;;;;;;19.80;13.97;;;18.70;99.90;;;;;;5028576;28;20425;-55
2021/07/14 03:13:28;;;;;;;21.37;13.97;;;18.60;99.90;;;;;;5028451;28;20471;-57
2021/07/14 03:15:55;;;;;;;21.07;14.47;;;18.60;99.90;;;;;;5028431;28;20421;-55
2021/07/14 03:18:23;;;;;;;18.90;14.90;;;18.60;99.90;;;;;;5028469;28;20554;-54
2021/07/14 03:20:53;;;;;;;22.87;15.00;;;18.70;99.90;;;;;;5028363;28;20182;-55
2021/07/14 03:23:20;;;;;;;19.57;14.47;;;18.70;99.90;;;;;;5011275;28;20423;-54
2021/07/14 03:25:53;;;;;;;26.33;15.47;;;18.60;99.90;;;;;;5032142;28;21177;-56
2021/07/14 03:28:22;;;;;;;26.47;15.00;;;18.60;99.90;;;;;;5031987;28;20421;-51
2021/07/14 03:30:50;;;;;;;22.87;14.23;;;18.60;99.90;;;;;;5031729;28;20516;-55
2021/07/14 03:33:17;;;;;;;17.70;14.47;;;18.50;99.90;;;;;;5031561;28;20876;-55
2021/07/14 03:35:43;;;;;;;23.90;14.60;;;18.50;99.90;;;;;;5031942;28;20431;-54
2021/07/14 03:38:10;;;;;;;21.40;14.60;;;18.50;99.90;;;;;;5031911;28;20893;-56
2021/07/14 03:40:39;;;;;;;24.70;16.13;;;18.50;99.90;;;;;;5031617;28;20428;-56
2021/07/14 03:43:05;;;;;;;23.30;15.33;;;18.50;99.90;;;;;;5031618;28;20448;-56
2021/07/14 03:45:32;;;;;;;21.13;14.90;;;18.50;99.90;;;;;;5032014;28;20859;-56
2021/07/14 03:47:59;;;;;;;23.23;14.73;;;18.50;99.90;;;;;;5031134;28;20434;-57
2021/07/14 03:50:26;;;;;;;24.93;16.23;;;18.50;99.90;;;;;;5031561;28;20437;-53
2021/07/14 03:52:52;;;;;;;25.80;15.23;;;18.50;99.90;;;;;;5031343;28;20473;-56
2021/07/14 03:55:19;;;;;;;22.27;16.10;;;18.60;99.90;;;;;;5031421;28;20471;-56
2021/07/14 03:57:45;;;;;;;23.60;16.70;;;18.60;99.90;;;;;;5031130;28;20417;-56
2021/07/14 04:00:11;;;;;;;23.83;15.43;;;18.60;99.90;;;;;;5031372;28;20409;-53
2021/07/14 04:02:39;;;;;;;21.67;16.20;;;18.60;99.90;;;;;;5031057;28;20444;-53
2021/07/14 04:05:06;;;;;;;25.02;17.15;;;18.60;99.90;;;;;;5031449;28;20481;-56
2021/07/14 04:07:33;;;;;;;23.55;16.20;;;18.60;99.90;;;;;;5031240;28;20276;-56
2021/07/14 04:10:00;;;;;;;20.30;15.03;;;18.60;99.90;;;;;;5031059;28;20289;-57
2021/07/14 04:12:26;;;;;;;24.10;17.00;;;18.60;99.90;;;;;;5013198;28;20479;-57
2021/07/14 04:14:52;;;;;;;25.00;17.53;;;18.60;99.90;;;;;;5031243;28;20413;-54
2021/07/14 04:17:17;;;;;;;23.90;17.13;;;18.60;99.90;;;;;;5031059;28;20235;-55
2021/07/14 04:19:43;;;;;;;29.50;17.60;;;18.60;99.90;;;;;;5030589;28;20191;-58
2021/07/14 04:22:11;;;;;;;24.87;17.87;;;18.60;99.90;;;;;;5031194;28;20216;-57
2021/07/14 04:24:38;;;;;;;28.85;18.08;;;18.60;99.90;;;;;;5030649;28;20432;-56
2021/07/14 04:27:04;;;;;;;25.90;18.20;;;18.60;99.90;;;;;;5031099;28;20195;-56
2021/07/14 04:29:30;;;;;;;27.87;19.67;;;18.70;99.90;;;;;;5030811;28;20413;-58
2021/07/14 04:31:55;;;;;;;26.80;18.60;;;18.70;99.90;;;;;;5030894;28;20495;-54
2021/07/14 04:34:21;;;;;;;27.53;17.17;;;18.70;99.90;;;;;;5030473;28;20186;-54
2021/07/14 04:36:47;;;;;;;24.33;17.23;;;18.70;99.90;;;;;;5031138;28;20187;-57
2021/07/14 04:39:12;;;;;;;25.63;16.70;;;18.70;99.90;;;;;;5030318;28;20248;-56
2021/07/14 04:41:38;;;;;;;23.90;16.00;;;18.60;99.90;;;;;;5030739;28;20198;-57
2021/07/14 04:44:05;;;;;;;25.17;17.53;;;18.60;99.90;;;;;;5030388;28;20418;-57
2021/07/14 04:46:32;;;;;;;24.13;17.60;;;18.70;99.90;;;;;;5030545;28;20190;-53
2021/07/14 04:48:58;;;;;;;32.60;20.30;;;18.70;99.90;;;;;;5030433;28;20467;-52
2021/07/14 04:51:24;;;;;;;26.77;18.77;;;18.70;99.90;;;;;;5030398;28;21159;-57
2021/07/14 04:53:50;;;;;;;32.13;19.70;;;18.60;99.90;;;;;;5029547;28;20468;-56
2021/07/14 04:56:18;;;;;;;27.27;21.03;;;18.60;99.90;;;;;;5030085;28;20437;-55
2021/07/14 04:58:45;;;;;;;27.57;20.17;;;18.60;99.90;;;;;;5033261;28;20178;-55
2021/07/14 05:01:13;;;;;;;30.50;20.57;;;18.60;99.90;;;;;;5029916;28;20442;-56
2021/07/14 05:03:45;;;;;;;28.50;20.83;;;18.70;99.90;;;;;;5030363;28;20782;-57
2021/07/14 05:06:12;;;;;;;29.97;21.60;;;18.70;99.90;;;;;;5030238;28;20414;-56
2021/07/14 05:08:37;;;;;;;31.03;21.60;;;18.90;99.90;;;;;;5029861;28;20429;-57
2021/07/14 05:11:03;;;;;;;31.40;21.73;;;18.90;99.90;;;;;;5029900;28;20801;-58
2021/07/14 05:13:28;;;;;;;29.03;20.90;;;18.90;99.90;;;;;;5029429;28;20218;-56
2021/07/14 05:15:54;;;;;;;25.70;20.70;;;18.90;99.90;;;;;;5029156;28;20190;-57
2021/07/14 05:18:19;;;;;;;30.83;21.37;;;18.90;99.90;;;;;;5029046;28;20223;-56
2021/07/14 05:20:45;;;;;;;31.57;22.80;;;18.90;99.90;;;;;;5029210;28;20179;-58
2021/07/14 05:23:10;;;;;;;31.10;24.00;;;19.00;99.90;;;;;;5029785;28;20186;-59
2021/07/14 05:25:36;;;;;;;31.70;22.17;;;19.00;99.90;;;;;;5029522;28;20188;-57
2021/07/14 05:28:03;;;;;;;32.63;22.67;;;19.10;99.90;;;;;;5029804;28;20567;-57
2021/07/14 05:30:30;;;;;;;29.17;22.37;;;19.10;99.90;;;;;;5029492;28;20440;-57
2021/07/14 05:32:55;;;;;;;29.07;23.63;;;19.30;99.90;;;;;;5029433;28;20989;-59
2021/07/14 05:35:21;;;;;;;26.53;20.17;;;19.50;99.90;;;;;;5029441;28;20416;-58
2021/07/14 05:37:46;;;;;;;20.77;18.60;;;19.50;99.90;;;;;;5011146;28;20171;-54
2021/07/14 05:40:12;;;;;;;20.17;17.83;;;19.70;99.90;;;;;;5010564;28;20187;-58
2021/07/14 05:42:37;;;;;;;21.10;17.47;;;19.80;99.90;;;;;;5028498;28;20532;-58
2021/07/14 05:45:04;;;;;;;19.17;17.07;;;19.90;99.90;;;;;;5028729;28;20212;-57
2021/07/14 05:47:30;;;;;;;18.40;16.50;;;19.90;99.90;;;;;;5028250;28;21008;-57
2021/07/14 05:49:56;;;;;;;17.80;15.90;;;20.00;99.90;;;;;;5029300;28;20530;-58
2021/07/14 05:52:22;;;;;;;17.27;15.43;;;20.20;99.90;;;;;;5028955;28;20668;-56
2021/07/14 05:54:47;;;;;;;17.23;15.40;;;20.30;99.90;;;;;;5028780;28;20437;-54
2021/07/14 05:57:13;;;;;;;17.87;15.87;;;20.30;99.90;;;;;;5011278;28;20186;-59
2021/07/14 05:59:38;;;;;;;15.07;13.53;;;20.40;99.90;;;;;;5036760;28;20235;-52
2021/07/14 06:02:04;;;;;;;16.73;15.00;;;20.40;99.90;;;;;;5029029;28;20214;-56
2021/07/14 06:04:30;;;;;;;16.30;14.80;;;20.40;99.90;;;;;;5024685;28;20195;-57
2021/07/14 06:06:59;;;;;;;14.50;13.13;;;20.40;99.90;;;;;;5025378;28;20193;-56
2021/07/14 06:09:24;;;;;;;14.73;13.33;;;20.50;99.90;;;;;;5022601;28;20203;-60
2021/07/14 06:11:50;;;;;;;15.33;13.90;;;20.40;99.90;;;;;;5026052;28;20424;-58
2021/07/14 06:14:15;;;;;;;15.70;14.20;;;20.40;99.90;;;;;;5026525;28;20206;-58
2021/07/14 06:16:41;;;;;;;15.80;14.23;;;20.30;99.90;;;;;;5020960;28;20190;-54
2021/07/14 06:19:06;;;;;;;17.67;16.00;;;20.30;99.90;;;;;;5028490;28;20187;-57
2021/07/14 06:21:32;;;;;;;15.47;14.07;;;20.20;99.90;;;;;;5028506;28;20217;-59
2021/07/14 06:23:58;;;;;;;15.47;14.07;;;20.20;99.90;;;;;;5028762;28;20247;-56
2021/07/14 06:26:23;;;;;;;16.43;14.93;;;20.10;99.90;;;;;;5028315;28;20211;-60
2021/07/14 06:28:49;;;;;;;15.90;14.40;;;20.10;99.90;;;;;;5028293;28;20258;-58
2021/07/14 06:31:14;;;;;;;16.60;14.93;;;20.20;99.90;;;;;;5028578;28;20241;-54
2021/07/14 06:33:41;;;;;;;16.53;14.93;;;20.20;99.90;;;;;;5028350;28;20538;-53
2021/07/14 06:36:07;;;;;;;16.63;15.00;;;20.20;99.90;;;;;;5028771;28;20610;-56
2021/07/14 06:38:33;;;;;;;16.00;14.40;;;20.10;99.90;;;;;;5028429;28;20410;-58
2021/07/14 06:40:59;;;;;;;17.37;15.73;;;20.10;99.90;;;;;;5028287;28;20460;-54
2021/07/14 06:43:41;;;;;;;16.93;15.40;;;20.10;99.90;;;;;;5027999;28;20428;-52
2021/07/14 06:46:08;;;;;;;16.10;14.70;;;20.00;99.90;;;;;;5025399;28;20423;-56
2021/07/14 06:48:34;;;;;;;15.77;14.10;;;20.10;99.90;;;;;;5026558;28;20867;-56
2021/07/14 06:50:59;;;;;;;15.63;14.23;;;20.10;99.90;;;;;;5026952;28;20466;-55
2021/07/14 06:53:25;;;;;;;15.13;13.47;;;20.10;99.90;;;;;;5027605;28;20696;-54
2021/07/14 06:55:51;;;;;;;15.33;14.03;;;20.10;99.90;;;;;;5016780;28;20188;-54
2021/07/14 06:58:17;;;;;;;15.40;13.90;;;20.10;99.90;;;;;;5034719;28;20256;-56
2021/07/14 07:00:42;;;;;;;16.17;14.57;;;20.20;99.90;;;;;;5032543;28;20518;-55
2021/07/14 07:03:08;;;;;;;16.27;14.77;;;20.40;99.90;;;;;;5024641;28;20884;-56
2021/07/14 07:05:33;;;;;;;16.30;14.90;;;20.50;99.90;;;;;;5029694;28;20251;-55
2021/07/14 07:07:59;;;;;;;14.93;13.53;;;20.70;99.90;;;;;;5030801;28;20253;-59
2021/07/14 07:10:24;;;;;;;15.30;12.87;;;20.70;99.90;;;;;;5025332;28;20273;-55
2021/07/14 07:12:50;;;;;;;12.93;11.73;;;20.70;99.90;;;;;;5025036;28;20215;-57
2021/07/14 07:15:18;;;;;;;12.63;11.47;;;20.70;99.90;;;;;;5031560;28;20194;-58
2021/07/14 07:17:44;;;;;;;12.00;11.00;;;20.90;99.90;;;;;;5031234;28;20767;-55
2021/07/14 07:20:10;;;;;;;11.70;10.57;;;21.00;99.90;;;;;;5031648;28;20523;-58
2021/07/14 07:22:36;;;;;;;11.10;10.20;;;21.20;99.90;;;;;;5031966;28;20581;-58
2021/07/14 07:25:02;;;;;;;10.53;9.37;;;21.20;99.90;;;;;;5031605;28;20500;-53
2021/07/14 07:27:34;;;;;;;8.97;8.27;;;21.20;99.90;;;;;;5031943;28;20174;-55
2021/07/14 07:29:59;;;;;;;9.30;8.50;;;21.20;99.90;;;;;;5031530;28;20425;-54
2021/07/14 07:32:25;;;;;;;9.23;8.43;;;21.10;99.90;;;;;;5031400;28;20463;-55
2021/07/14 07:34:50;;;;;;;10.03;9.23;;;21.10;99.90;;;;;;5031501;28;20178;-55
2021/07/14 07:37:16;;;;;;;16.10;10.07;;;21.00;99.90;;;;;;5031116;28;20559;-54
2021/07/14 07:39:42;;;;;;;9.67;8.97;;;21.00;99.90;;;;;;5030775;28;20185;-53
2021/07/14 07:42:08;;;;;;;9.30;8.50;;;21.10;99.90;;;;;;5032029;28;20629;-54
2021/07/14 07:44:33;;;;;;;8.47;7.87;;;21.10;99.90;;;;;;5031621;28;20424;-55
2021/07/14 07:46:59;;;;;;;8.93;8.23;;;21.00;99.90;;;;;;5030311;28;20660;-54
2021/07/14 07:49:25;;;;;;;8.40;7.80;;;21.10;99.90;;;;;;5031455;28;20210;-54
2021/07/14 07:51:50;;;;;;;8.13;7.33;;;21.00;99.90;;;;;;5031669;28;20206;-53
2021/07/14 07:54:16;;;;;;;7.90;7.30;;;21.00;95.70;;;;;;5020631;28;20698;-56
2021/07/14 07:56:41;;;;;;;8.43;7.67;;;20.90;99.90;;;;;;5031836;28;20236;-55
2021/07/14 07:59:07;;;;;;;8.90;8.10;;;21.00;99.90;;;;;;5040145;28;20626;-55
2021/07/14 08:01:32;;;;;;;8.40;7.70;;;21.10;99.90;;;;;;5028269;28;20182;-56
2021/07/14 08:03:58;;;;;;;7.90;7.30;;;21.10;99.90;;;;;;5030416;28;20264;-56
2021/07/14 08:06:23;;;;;;;8.13;7.40;;;21.00;86.80;;;;;;5029117;28;20664;-55
2021/07/14 08:08:49;;;;;;;8.27;7.67;;;21.00;74.70;;;;;;5012728;28;20186;-55
2021/07/14 08:11:15;;;;;;;8.90;8.20;;;21.00;85.80;;;;;;5029871;28;20193;-56
2021/07/14 08:13:40;;;;;;;9.10;8.37;;;21.20;99.90;;;;;;5030146;28;20221;-55
2021/07/14 08:16:07;;;;;;;9.27;8.47;;;21.20;99.90;;;;;;5030794;28;20232;-56
2021/07/14 08:18:32;;;;;;;9.10;8.37;;;21.40;99.90;;;;;;5017358;28;20219;-55
2021/07/14 08:20:58;;;;;;;9.60;8.80;;;21.50;96.50;;;;;;5030980;28;20472;-50
2021/07/14 08:23:25;;;;;;;9.90;9.20;;;21.70;99.00;;;;;;5018628;28;20187;-56
2021/07/14 08:25:53;;;;;;;10.00;9.30;;;21.90;86.30;;;;;;5011730;28;20485;-53
2021/07/14 08:28:20;;;;;;;9.93;9.13;;;22.20;58.80;;;;;;5029358;28;20846;-52
2021/07/14 08:30:47;;;;;;;10.53;9.63;;;22.40;51.80;;;;;;5029557;28;20458;-54
2021/07/14 08:33:12;;;;;;;16.30;14.97;;;22.60;34.90;;;;;;5024443;28;20513;-51
2021/07/14 08:35:40;;;;;;;11.10;10.10;;;22.80;38.90;;;;;;5026781;28;20434;-49
2021/07/14 08:38:06;;;;;;;9.90;9.10;;;23.00;32.50;;;;;;5029907;28;20579;-54
2021/07/14 08:40:32;;;;;;;8.87;8.20;;;23.10;26.40;;;;;;5029575;28;20429;-54
2021/07/14 08:43:01;;;;;;;10.20;9.30;;;23.20;1.00;;;;;;5030044;28;20969;-55
2021/07/14 08:45:26;;;;;;;9.10;8.40;;;23.30;1.00;;;;;;5027831;28;20261;-50
2021/07/14 08:47:52;;;;;;;8.93;8.10;;;23.20;1.00;;;;;;5029930;28;20858;-53
2021/07/14 08:50:20;;;;;;;9.27;8.33;;;23.20;1.00;;;;;;5025783;28;20187;-55
2021/07/14 08:52:48;;;;;;;8.47;7.80;;;23.20;1.00;;;;;;5022254;28;20210;-53
2021/07/14 08:55:15;;;;;;;9.77;8.60;;;23.40;1.00;;;;;;5029505;28;20416;-56
2021/07/14 08:57:42;;;;;;;8.20;7.60;;;23.50;1.00;;;;;;5030110;28;20499;-51
2021/07/14 09:00:14;;;;;;;8.80;8.20;;;23.70;1.00;;;;;;5032613;28;20792;-50
2021/07/14 09:02:41;;;;;;;9.30;8.30;;;24.10;1.00;;;;;;5028265;28;20429;-52
2021/07/14 09:05:07;;;;;;;8.77;8.13;;;24.40;1.00;;;;;;5028628;28;20441;-54
2021/07/14 09:07:35;;;;;;;9.47;8.80;;;24.80;1.00;;;;;;5029465;28;20410;-50
2021/07/14 09:10:01;;;;;;;10.83;9.93;;;24.90;1.00;;;;;;5029267;28;20425;-54
2021/07/14 09:12:39;;;;;;;9.87;9.13;;;25.00;1.00;;;;;;5019716;28;20473;-53
2021/07/14 09:15:13;;;;;;;10.30;9.40;;;25.00;1.00;;;;;;5027274;28;20422;-55
2021/07/14 09:17:49;;;;;;;9.40;8.70;;;24.80;1.00;;;;;;5028411;28;20571;-52
2021/07/14 09:20:28;;;;;;;10.10;9.30;;;25.00;1.00;;;;;;5027144;28;20439;-54
2021/07/14 09:23:08;;;;;;;9.17;8.57;;;25.10;1.00;;;;;;5028103;28;20824;-53
2021/07/14 09:25:42;;;;;;;9.10;8.47;;;25.20;1.00;;;;;;5027795;28;20413;-54
2021/07/14 09:28:08;;;;;;;9.50;8.57;;;25.30;1.00;;;;;;5029483;28;20500;-50
2021/07/14 09:30:36;;;;;;;9.80;9.00;;;25.30;1.00;;;;;;5029431;28;21265;-55
2021/07/14 09:33:07;;;;;;;9.40;8.80;;;25.50;99.90;;;;;;5024903;28;20476;-56
2021/07/14 09:35:47;;;;;;;9.00;8.20;;;25.60;99.90;;;;;;5028707;28;20782;-55
2021/07/14 09:38:21;;;;;;;10.00;9.10;;;25.30;99.90;;;;;;5021407;28;20531;-52
2021/07/14 09:40:51;;;;;;;8.30;7.60;;;25.30;1.00;;;;;;5028479;28;20449;-49
2021/07/14 09:43:19;;;;;;;8.60;7.90;;;25.40;1.00;;;;;;5021826;28;20536;-54
2021/07/14 09:45:54;;;;;;;7.80;7.30;;;25.50;1.00;;;;;;5028270;28;20414;-50
2021/07/14 09:48:29;;;;;;;8.37;7.67;;;25.70;1.00;;;;;;5030235;28;20413;-54
2021/07/14 09:51:01;;;;;;;7.20;6.80;;;25.90;99.90;;;;;;5016490;28;20413;-52
2021/07/14 09:53:29;;;;;;;8.10;7.60;;;25.80;1.00;;;;;;5025213;28;20542;-55
2021/07/14 09:56:00;;;;;;;8.10;7.53;;;25.80;1.00;;;;;;5028823;28;20925;-52
2021/07/14 09:58:30;;;;;;;7.18;6.68;;;26.10;99.90;;;;;;5027277;28;20441;-48
2021/07/14 10:01:01;;;;;;;7.30;6.90;;;26.40;17.90;;;;;;5019561;28;20245;-55
2021/07/14 10:03:37;;;;;;;7.00;6.60;;;26.90;99.90;;;;;;5029155;28;20464;-55
2021/07/14 10:06:10;;;;;;;7.90;7.30;;;27.30;14.00;;;;;;5029997;28;20441;-55
2021/07/14 10:08:47;;;;;;;8.52;8.02;;;27.50;10.10;;;;;;5025457;28;20457;-52
2021/07/14 10:11:21;;;;;;;8.00;7.47;;;27.60;1.00;;;;;;5011895;28;20578;-56
2021/07/14 10:14:02;;;;;;;7.77;7.27;;;27.50;99.90;;;;;;5029231;28;20479;-51
2021/07/14 10:16:30;;;;;;;8.17;7.57;;;27.40;99.90;;;;;;5029312;28;20432;-56
2021/07/14 10:19:13;;;;;;;9.77;9.27;;;27.20;1.00;;;;;;5029070;28;20428;-50
2021/07/14 10:21:40;;;;;;;11.30;10.60;;;27.00;99.90;;;;;;5028750;28;20417;-51
2021/07/14 10:24:07;;;;;;;11.83;10.97;;;26.80;47.60;;;;;;5029086;28;20412;-53
2021/07/14 10:26:35;;;;;;;12.33;11.33;;;26.70;99.90;;;;;;5026665;28;20864;-54
2021/07/14 10:29:02;;;;;;;10.60;9.87;;;26.60;99.90;;;;;;5028228;28;20428;-54
2021/07/14 10:31:29;;;;;;;9.30;8.67;;;26.70;99.90;;;;;;5028319;28;20410;-53
2021/07/14 10:33:56;;;;;;;9.60;9.00;;;26.70;1.00;;;;;;5031056;28;20884;-56
2021/07/14 10:36:28;;;;;;;9.85;9.15;;;26.70;99.90;;;;;;4999129;28;20455;-53
2021/07/14 10:38:59;;;;;;;9.00;8.50;;;26.40;1.00;;;;;;5032529;28;20182;-53
2021/07/14 10:41:30;;;;;;;9.00;8.40;;;26.30;1.00;;;;;;5032160;28;20174;-49
2021/07/14 10:43:57;;;;;;;8.53;8.03;;;26.60;1.00;;;;;;5031986;28;20444;-54
2021/07/14 10:46:25;;;;;;;8.77;8.27;;;26.50;99.90;;;;;;5032292;28;20417;-51
2021/07/14 10:48:52;;;;;;;9.70;9.00;;;26.30;1.00;;;;;;5033225;28;20520;-53
2021/07/14 10:51:18;;;;;;;8.50;8.00;;;26.60;1.00;;;;;;5032210;28;20417;-52
2021/07/14 10:53:49;;;;;;;7.40;7.00;;;26.70;1.00;;;;;;5031842;28;20464;-53
2021/07/14 10:56:15;;;;;;;8.00;7.50;;;26.80;99.90;;;;;;5031996;28;20488;-53
2021/07/14 10:58:42;;;;;;;8.03;7.60;;;26.70;99.90;;;;;;5020633;28;20513;-53
2021/07/14 11:01:08;;;;;;;8.30;7.80;;;26.70;1.00;;;;;;5018199;28;20414;-53
2021/07/14 11:03:36;;;;;;;7.73;7.13;;;27.00;99.90;;;;;;5017068;28;20947;-55
2021/07/14 11:06:03;;;;;;;8.57;7.97;;;26.80;99.90;;;;;;5030715;28;20508;-56
2021/07/14 11:08:47;;;;;;;7.07;6.67;;;27.00;1.00;;;;;;5031310;28;20478;-51
2021/07/14 11:11:14;;;;;;;7.70;7.30;;;27.40;99.90;;;;;;5031317;28;20443;-54
2021/07/14 11:13:41;;;;;;;7.67;7.17;;;28.30;1.00;;;;;;5030946;28;20484;-53
2021/07/14 11:16:24;;;;;;;7.00;6.60;;;28.80;99.90;;;;;;5031015;28;20422;-54
2021/07/14 11:19:02;;;;;;;7.50;7.10;;;28.30;91.30;;;;;;5031042;28;20424;-56
2021/07/14 11:21:48;;;;;;;8.20;7.70;;;28.10;99.90;;;;;;5031081;28;20405;-55
2021/07/14 11:24:54;;;;;;;7.67;7.17;;;27.90;99.90;;;;;;5013007;28;20417;-58
2021/07/14 11:27:22;;;;;;;8.82;8.23;;;28.00;1.00;;;;;;5019779;28;20409;-57
2021/07/14 11:30:12;;;;;;;8.40;7.97;;;28.80;99.90;;;;;;5030864;28;20531;-54
2021/07/14 11:32:43;;;;;;;9.00;8.30;;;29.80;1.00;;;;;;5012760;28;20672;-51
2021/07/14 11:35:17;;;;;;;8.83;8.33;;;29.50;1.00;;;;;;5030423;28;20423;-55
2021/07/14 11:37:49;;;;;;;9.10;8.60;;;29.50;1.00;;;;;;5038684;28;20412;-55
2021/07/14 11:40:18;;;;;;;9.60;9.10;;;29.90;1.00;;;;;;5013853;28;20413;-55
2021/07/14 11:42:53;;;;;;;10.10;9.50;;;30.80;1.00;;;;;;5012827;28;20424;-52
2021/07/14 11:45:39;;;;;;;10.60;10.00;;;30.70;1.00;;;;;;5026173;28;20425;-56
2021/07/14 11:48:08;;;;;;;10.30;9.70;;;31.20;1.00;;;;;;5030215;28;20474;-52
2021/07/14 11:50:46;;;;;;;9.60;9.00;;;31.80;99.90;;;;;;5030968;28;20412;-55
2021/07/14 11:53:37;;;;;;;11.10;10.50;;;31.30;99.90;;;;;;5008772;28;20851;-53
2021/07/14 11:56:13;;;;;;;10.07;9.57;;;31.70;1.00;;;;;;5012120;28;20776;-56
2021/07/14 11:58:58;;;;;;;10.50;9.90;;;32.50;99.90;;;;;;5030895;28;20499;-56
2021/07/14 12:01:27;;;;;;;10.60;10.00;;;33.10;99.90;;;;;;5030881;28;20873;-55
2021/07/14 12:04:01;;;;;;;10.73;10.23;;;34.00;99.90;;;;;;5012169;28;20448;-55
2021/07/14 12:06:42;;;;;;;10.67;10.07;;;34.60;99.90;;;;;;5011213;28;20445;-56
2021/07/14 12:09:14;;;;;;;10.67;10.17;;;34.60;99.90;;;;;;5011278;28;20395;-54
2021/07/14 12:11:40;;;;;;;11.57;10.98;;;34.10;99.90;;;;;;5016037;28;20986;-56
2021/07/14 12:14:06;;;;;;;11.70;11.10;;;34.30;99.90;;;;;;5010171;28;20211;-54
2021/07/14 12:16:32;;;;;;;12.03;11.43;;;34.00;99.90;;;;;;5010969;28;20499;-54
2021/07/14 12:18:59;;;;;;;10.50;10.00;;;34.00;99.90;;;;;;5020268;28;20183;-55
2021/07/14 12:21:39;;;;;;;11.47;10.63;;;35.10;99.90;;;;;;5030528;28;20175;-56
2021/07/14 12:24:07;;;;;;;10.80;10.10;;;35.90;99.90;;;;;;5024576;28;20437;-56
2021/07/14 12:26:33;;;;;;;9.90;9.40;;;36.50;99.90;;;;;;5030276;28;20977;-54
2021/07/14 12:29:18;;;;;;;9.00;8.60;;;36.70;99.90;;;;;;5029272;28;20449;-53
2021/07/14 12:31:47;;;;;;;9.93;9.43;;;36.50;99.90;;;;;;5030317;28;20430;-54
2021/07/14 12:34:23;;;;;;;9.33;8.83;;;37.00;99.90;;;;;;5024208;28;20978;-57
2021/07/14 12:36:49;;;;;;;8.83;8.43;;;36.00;99.90;;;;;;5027455;28;20429;-54
2021/07/14 12:39:24;;;;;;;8.48;8.07;;;35.40;99.90;;;;;;5031105;28;20508;-56
2021/07/14 12:41:54;;;;;;;8.50;8.10;;;35.30;99.90;;;;;;5030550;28;20210;-54
2021/07/14 12:44:20;;;;;;;7.33;7.03;;;35.00;99.90;;;;;;5029831;28;20421;-57
2021/07/14 12:46:46;;;;;;;6.45;6.05;;;34.20;99.90;;;;;;5030246;28;20418;-52
2021/07/14 12:49:17;;;;;;;7.40;7.00;;;33.30;99.90;;;;;;5018190;28;20219;-55
2021/07/14 12:52:03;;;;;;;8.00;7.60;;;32.60;99.90;;;;;;5017232;28;20448;-56